createdAt,value
2022-11-24T00:02:10.632Z,27.60
2022-11-24T00:05:12.269Z,28.25
2022-11-24T00:08:13.948Z,25.52
2022-11-24T00:11:24.739Z,32.83
2022-11-24T00:17:29.345Z,29.02
2022-11-24T00:20:30.898Z,33.90
2022-11-24T00:23:33.287Z,35.80
2022-11-24T00:26:37.331Z,32.33
2022-11-24T00:29:39.023Z,21.00
2022-11-24T00:32:40.542Z,23.77
2022-11-24T00:35:42.038Z,31.15
2022-11-24T00:38:44.256Z,29.73
2022-11-24T00:41:45.812Z,21.52
2022-11-24T00:44:47.416Z,23.80
2022-11-24T00:47:49.145Z,27.42
2022-11-24T00:51:06.336Z,28.13
2022-11-24T00:54:07.889Z,25.33
2022-11-24T00:57:09.396Z,24.70
2022-11-24T01:00:11.209Z,25.92
2022-11-24T01:03:13.679Z,23.70
2022-11-24T01:06:18.337Z,23.38
2022-11-24T01:09:19.862Z,25.33
2022-11-24T01:12:21.423Z,33.55
2022-11-24T01:15:23.298Z,30.25
2022-11-24T01:18:24.836Z,21.98
2022-11-24T01:21:26.413Z,23.42
2022-11-24T01:24:27.960Z,27.92
2022-11-24T01:27:29.494Z,33.72
2022-11-24T01:30:31.054Z,26.67
2022-11-24T01:33:33.942Z,27.98
2022-11-24T01:36:36.518Z,24.90
2022-11-24T01:39:38.142Z,33.00
2022-11-24T01:42:53.122Z,25.85
2022-11-24T01:45:55.535Z,30.05
2022-11-24T01:48:59.871Z,28.08
2022-11-24T01:52:08.867Z,23.23
2022-11-24T01:55:18.128Z,20.02
2022-11-24T01:58:23.902Z,28.65
2022-11-24T02:01:26.113Z,24.08
2022-11-24T02:04:32.769Z,22.27
2022-11-24T02:07:36.371Z,21.23
2022-11-24T02:10:38.689Z,26.10
2022-11-24T02:13:42.134Z,33.15
2022-11-24T02:16:49.346Z,37.58
2022-11-24T02:20:03.976Z,27.45
2022-11-24T02:23:18.537Z,24.02
2022-11-24T02:26:35.117Z,27.63
2022-11-24T02:29:37.299Z,28.00
2022-11-24T02:32:41.871Z,19.90
2022-11-24T02:35:43.979Z,29.70
2022-11-24T02:38:45.516Z,24.63
2022-11-24T02:41:51.597Z,27.38
2022-11-24T02:44:59.107Z,24.73
2022-11-24T02:48:00.901Z,23.42
2022-11-24T02:51:02.737Z,27.70
2022-11-24T02:54:04.343Z,29.35
2022-11-24T02:57:05.956Z,30.48
2022-11-24T03:00:08.369Z,25.73
2022-11-24T03:03:10.227Z,23.35
2022-11-24T03:06:11.757Z,29.67
2022-11-24T03:09:13.335Z,32.42
2022-11-24T03:12:15.024Z,27.77
2022-11-24T03:15:16.604Z,26.88
2022-11-24T03:18:18.115Z,25.55
2022-11-24T03:21:19.917Z,23.13
2022-11-24T03:24:21.565Z,32.75
2022-11-24T03:27:23.101Z,26.17
2022-11-24T03:30:24.808Z,30.65
2022-11-24T03:33:26.321Z,28.35
2022-11-24T03:36:28.063Z,25.40
2022-11-24T03:39:29.799Z,27.42
2022-11-24T03:42:31.361Z,37.53
2022-11-24T03:45:48.313Z,26.75
2022-11-24T03:48:50.152Z,28.08
2022-11-24T03:51:51.792Z,25.35
2022-11-24T03:54:53.693Z,29.98
2022-11-24T03:57:55.218Z,27.45
2022-11-24T04:00:57.680Z,25.58
2022-11-24T04:03:59.180Z,26.42
2022-11-24T04:07:00.764Z,31.17
2022-11-24T04:10:02.680Z,26.42
2022-11-24T04:13:10.151Z,26.02
2022-11-24T04:16:11.734Z,27.10
2022-11-24T04:19:13.439Z,38.47
2022-11-24T04:22:14.971Z,25.55
2022-11-24T04:25:17.376Z,25.98
2022-11-24T04:28:18.924Z,22.10
2022-11-24T04:31:20.585Z,30.02
2022-11-24T04:34:22.347Z,28.80
2022-11-24T04:37:24.002Z,25.98
2022-11-24T04:40:25.571Z,29.73
2022-11-24T04:43:27.183Z,29.60
2022-11-24T04:46:28.735Z,27.00
2022-11-24T04:49:30.393Z,28.33
2022-11-24T04:52:31.998Z,35.45
2022-11-24T04:55:33.515Z,31.13
2022-11-24T04:58:35.472Z,34.22
2022-11-24T05:01:37.007Z,31.80
2022-11-24T05:04:39.109Z,29.42
2022-11-24T05:07:40.806Z,34.08
2022-11-24T05:10:42.927Z,32.42
2022-11-24T05:13:44.954Z,36.47
2022-11-24T05:16:46.632Z,41.35
2022-11-24T05:19:48.162Z,30.85
2022-11-24T05:22:49.749Z,34.70
2022-11-24T05:25:51.607Z,37.92
2022-11-24T05:28:53.466Z,36.22
2022-11-24T05:31:55.004Z,37.33
2022-11-24T05:34:56.685Z,32.38
2022-11-24T05:37:58.994Z,32.85
2022-11-24T05:41:05.265Z,45.63
2022-11-24T05:44:06.866Z,35.28
2022-11-24T05:47:08.573Z,36.50
2022-11-24T05:50:12.735Z,36.75
2022-11-24T05:53:14.376Z,28.83
2022-11-24T05:56:15.885Z,28.92
2022-11-24T05:59:17.584Z,18.35
2022-11-24T06:02:19.317Z,31.40
2022-11-24T06:05:21.046Z,32.13
2022-11-24T06:08:26.833Z,35.05
2022-11-24T06:11:32.315Z,31.90
2022-11-24T06:14:34.329Z,32.85
2022-11-24T06:17:36.060Z,34.53
2022-11-24T06:20:37.715Z,35.88
2022-11-24T06:23:39.930Z,32.20
2022-11-24T06:26:41.675Z,32.28
2022-11-24T06:29:43.513Z,28.95
2022-11-24T06:32:49.464Z,32.10
2022-11-24T06:35:52.080Z,31.88
2022-11-24T06:38:53.887Z,35.92
2022-11-24T06:41:55.422Z,34.45
2022-11-24T06:44:56.917Z,35.50
2022-11-24T06:47:58.532Z,30.65
2022-11-24T06:51:01.834Z,34.47
2022-11-24T06:54:07.141Z,27.77
2022-11-24T06:57:09.211Z,36.72
2022-11-24T07:00:11.239Z,28.67
2022-11-24T07:03:17.045Z,30.20
2022-11-24T07:06:19.583Z,34.03
2022-11-24T07:09:21.108Z,29.23
2022-11-24T07:12:24.139Z,23.63
2022-11-24T07:15:26.021Z,30.45
2022-11-24T07:18:27.666Z,31.35
2022-11-24T07:21:30.715Z,27.08
2022-11-24T07:24:32.504Z,24.50
2022-11-24T07:27:34.640Z,19.08
2022-11-24T07:30:36.155Z,30.30
2022-11-24T07:33:38.160Z,23.95
2022-11-24T07:36:39.676Z,18.60
2022-11-24T07:39:41.227Z,16.67
2022-11-24T07:42:42.747Z,13.18
2022-11-24T07:45:44.550Z,11.88
2022-11-24T07:48:46.452Z,10.43
2022-11-24T07:51:48.224Z,9.73
2022-11-24T07:54:49.717Z,15.50
2022-11-24T07:57:51.304Z,11.65
2022-11-24T08:00:52.801Z,14.30
2022-11-24T08:03:54.476Z,5.55
2022-11-24T08:06:56.044Z,11.35
2022-11-24T08:09:57.653Z,18.23
2022-11-24T08:13:01.930Z,9.95
2022-11-24T08:16:08.286Z,9.88
2022-11-24T08:19:11.812Z,7.82
2022-11-24T08:22:13.341Z,8.30
2022-11-24T08:25:15.229Z,6.70
2022-11-24T08:28:16.828Z,12.73
2022-11-24T08:31:19.093Z,8.18
2022-11-24T08:34:20.729Z,6.30
2022-11-24T08:37:22.398Z,7.38
2022-11-24T08:40:24.078Z,11.20
2022-11-24T08:43:25.642Z,8.40
2022-11-24T08:46:27.408Z,6.72
2022-11-24T08:49:29.482Z,10.48
2022-11-24T08:52:31.040Z,11.00
2022-11-24T08:55:32.586Z,11.07
2022-11-24T08:58:34.806Z,6.60
2022-11-24T09:01:36.537Z,11.32
2022-11-24T09:04:38.330Z,6.70
2022-11-24T09:07:40.087Z,12.98
2022-11-24T09:10:41.942Z,13.68
2022-11-24T09:13:43.844Z,16.67
2022-11-24T09:16:45.410Z,12.57
2022-11-24T09:19:46.923Z,13.52
2022-11-24T09:22:48.609Z,19.02
2022-11-24T09:25:50.156Z,14.23
2022-11-24T09:28:54.523Z,14.88
2022-11-24T09:31:56.129Z,16.38
2022-11-24T09:34:57.787Z,18.90
2022-11-24T09:37:59.314Z,13.35
2022-11-24T09:41:18.921Z,14.35
2022-11-24T09:44:58.262Z,14.35
2022-11-24T09:48:10.879Z,13.75
2022-11-24T09:51:15.233Z,20.70
2022-11-24T09:54:20.396Z,13.15
2022-11-24T09:57:26.258Z,15.15
2022-11-24T10:00:27.832Z,14.80
2022-11-24T10:03:37.418Z,17.65
2022-11-24T10:06:48.351Z,18.05
2022-11-24T10:10:14.066Z,17.30
2022-11-24T10:13:28.292Z,15.57
2022-11-24T10:16:45.308Z,17.98
2022-11-24T10:19:54.476Z,18.75
2022-11-24T10:23:39.479Z,16.17
2022-11-24T10:27:23.791Z,17.05
2022-11-24T10:30:29.358Z,21.17
2022-11-24T10:33:31.231Z,17.80
2022-11-24T10:36:57.473Z,14.32
2022-11-24T10:40:21.317Z,16.73
2022-11-24T10:43:31.426Z,20.45
2022-11-24T10:46:39.038Z,20.30
2022-11-24T10:49:41.642Z,23.83
2022-11-24T10:52:47.721Z,14.13
2022-11-24T10:55:55.413Z,18.80
2022-11-24T10:58:56.959Z,17.23
2022-11-24T11:01:59.659Z,18.95
2022-11-24T11:05:26.866Z,19.75
2022-11-24T11:08:30.189Z,16.67
2022-11-24T11:11:32.366Z,19.60
2022-11-24T11:14:37.802Z,29.20
2022-11-24T11:17:40.722Z,19.25
2022-11-24T11:20:52.255Z,26.27
2022-11-24T11:23:54.266Z,17.02
2022-11-24T11:27:04.321Z,21.02
2022-11-24T11:34:04.108Z,15.70
2022-11-24T11:37:07.169Z,18.40
2022-11-24T11:40:17.049Z,26.60
2022-11-24T11:43:26.628Z,14.27
2022-11-24T11:46:32.543Z,21.77
2022-11-24T11:49:37.415Z,15.25
2022-11-24T11:53:00.528Z,20.55
2022-11-24T11:56:14.599Z,22.63
2022-11-24T11:59:18.883Z,17.10
2022-11-24T12:02:32.421Z,27.42
2022-11-24T12:05:42.032Z,13.85
2022-11-24T12:09:19.710Z,20.55
2022-11-24T12:12:37.214Z,14.32
2022-11-24T12:15:54.694Z,26.10
2022-11-24T12:19:03.627Z,21.02
2022-11-24T12:22:27.678Z,18.27
2022-11-24T12:25:38.086Z,19.17
2022-11-24T12:29:13.997Z,27.55
2022-11-24T12:32:34.505Z,22.35
2022-11-24T12:35:48.652Z,35.63
2022-11-24T12:39:13.996Z,20.13
2022-11-24T12:42:48.666Z,19.73
2022-11-24T12:45:52.895Z,27.10
2022-11-24T12:49:03.168Z,23.40
2022-11-24T12:52:28.805Z,29.13
2022-11-24T12:55:33.843Z,26.88
2022-11-24T12:58:57.935Z,20.45
2022-11-24T13:02:24.303Z,21.15
2022-11-24T13:05:41.323Z,27.17
2022-11-24T13:08:43.298Z,22.70
2022-11-24T13:11:45.998Z,22.73
2022-11-24T13:14:49.024Z,20.40
2022-11-24T13:21:51.957Z,21.05
2022-11-24T13:25:15.494Z,16.58
2022-11-24T13:29:05.763Z,27.95
2022-11-24T13:32:14.769Z,26.95
2022-11-24T13:35:16.489Z,23.63
2022-11-24T13:38:46.103Z,24.00
2022-11-24T13:42:00.258Z,25.35
2022-11-24T13:45:04.506Z,14.82
2022-11-24T13:48:21.978Z,18.70
2022-11-24T13:51:25.089Z,18.33
2022-11-24T13:54:28.575Z,20.90
2022-11-24T13:57:39.648Z,20.73
2022-11-24T14:00:59.911Z,22.05
2022-11-24T14:04:30.450Z,17.83
2022-11-24T14:07:33.032Z,23.85
2022-11-24T14:10:37.286Z,26.20
2022-11-24T14:13:38.890Z,28.60
2022-11-24T14:16:40.412Z,19.67
2022-11-24T14:19:44.627Z,23.75
2022-11-24T14:22:46.263Z,19.58
2022-11-24T14:25:49.722Z,20.33
2022-11-24T14:28:52.285Z,24.25
2022-11-24T14:31:59.225Z,23.55
2022-11-24T14:35:00.861Z,27.70
2022-11-24T14:38:05.721Z,20.77
2022-11-24T14:41:28.050Z,37.80
2022-11-24T14:44:41.374Z,19.88
2022-11-24T14:47:45.394Z,24.58
2022-11-24T14:50:47.158Z,26.25
2022-11-24T14:53:52.134Z,24.33
2022-11-24T14:57:04.160Z,22.73
2022-11-24T15:00:08.160Z,16.73
2022-11-24T15:03:17.942Z,31.67
2022-11-24T15:06:22.902Z,22.15
2022-11-24T15:09:31.089Z,24.20
2022-11-24T15:12:43.155Z,27.48
2022-11-24T15:16:01.796Z,29.65
2022-11-24T15:19:06.686Z,31.60
2022-11-24T15:22:46.583Z,36.67
2022-11-24T15:25:49.783Z,24.77
2022-11-24T15:28:51.400Z,86.97
2022-11-24T15:31:53.300Z,182.70
2022-11-24T15:34:54.918Z,138.63
2022-11-24T15:37:56.463Z,87.75
2022-11-24T15:41:00.081Z,52.25
2022-11-24T15:44:01.728Z,32.75
2022-11-24T15:47:03.309Z,28.25
2022-11-24T15:50:05.426Z,25.00
2022-11-24T15:53:31.651Z,28.42
2022-11-24T15:56:37.669Z,26.38
2022-11-24T15:59:39.217Z,21.45
2022-11-24T16:02:40.800Z,27.88
2022-11-24T16:05:42.505Z,30.00
2022-11-24T16:08:44.210Z,31.02
2022-11-24T16:11:45.740Z,32.13
2022-11-24T16:14:47.514Z,23.63
2022-11-24T16:17:49.272Z,32.10
2022-11-24T16:20:50.846Z,25.13
2022-11-24T16:23:52.413Z,24.15
2022-11-24T16:26:53.995Z,29.42
2022-11-24T16:29:55.689Z,27.13
2022-11-24T16:32:57.309Z,23.10
2022-11-24T16:35:58.994Z,24.67
2022-11-24T16:39:00.605Z,29.08
2022-11-24T16:42:02.483Z,26.55
2022-11-24T16:45:04.359Z,24.38
2022-11-24T16:48:06.037Z,22.85
2022-11-24T16:51:11.875Z,25.58
2022-11-24T16:54:13.393Z,32.55
2022-11-24T16:57:15.626Z,22.92
2022-11-24T17:00:17.732Z,30.10
2022-11-24T17:03:19.483Z,28.73
2022-11-24T17:06:21.436Z,21.30
2022-11-24T17:09:22.951Z,23.88
2022-11-24T17:12:24.482Z,39.00
2022-11-24T17:15:33.617Z,18.67
2022-11-24T17:18:36.005Z,29.30
2022-11-24T17:21:37.636Z,29.45
2022-11-24T17:24:39.171Z,26.20
2022-11-24T17:27:44.883Z,28.67
2022-11-24T17:30:48.197Z,27.02
2022-11-24T17:33:52.848Z,30.73
2022-11-24T17:36:54.441Z,28.25
2022-11-24T17:40:26.805Z,27.88
2022-11-24T17:43:30.148Z,28.10
2022-11-24T17:46:31.962Z,27.23
2022-11-24T17:49:33.519Z,27.05
2022-11-24T17:52:35.069Z,25.30
2022-11-24T17:55:36.615Z,26.10
2022-11-24T17:58:42.865Z,22.20
2022-11-24T18:06:18.398Z,15.68
2022-11-24T18:16:09.523Z,27.35
2022-11-24T18:19:11.947Z,21.60
2022-11-24T18:22:13.477Z,25.25
2022-11-24T18:25:15.082Z,20.65
2022-11-24T18:28:16.592Z,25.20
2022-11-24T18:31:22.333Z,19.38
2022-11-24T18:34:26.746Z,16.67
2022-11-24T18:37:30.461Z,19.48
2022-11-24T18:40:32.443Z,19.30
2022-11-24T18:43:36.150Z,25.02
2022-11-24T18:46:38.041Z,17.40
2022-11-24T18:49:39.612Z,21.45
2022-11-24T18:52:41.348Z,20.83
2022-11-24T18:55:42.910Z,21.10
2022-11-24T18:58:44.944Z,15.65
2022-11-24T19:01:46.944Z,18.92
2022-11-24T19:04:48.545Z,18.23
2022-11-24T19:07:50.183Z,18.58
2022-11-24T19:10:51.736Z,17.10
2022-11-24T19:13:53.556Z,21.40
2022-11-24T19:16:55.180Z,24.88
2022-11-24T19:19:56.793Z,22.25
2022-11-24T19:22:58.319Z,17.30
2022-11-24T19:26:01.714Z,20.90
2022-11-24T19:29:04.746Z,20.58
2022-11-24T19:32:06.374Z,23.33
2022-11-24T19:35:08.202Z,17.55
2022-11-24T19:38:14.723Z,20.35
2022-11-24T19:41:19.388Z,17.48
2022-11-24T19:44:23.981Z,24.98
2022-11-24T19:47:25.550Z,20.95
2022-11-24T19:50:27.072Z,23.55
2022-11-24T19:53:29.880Z,19.85
2022-11-24T19:56:34.677Z,17.58
2022-11-24T19:59:36.252Z,18.83
2022-11-24T20:02:38.044Z,21.10
2022-11-24T20:05:39.713Z,17.80
2022-11-24T20:08:42.607Z,16.85
2022-11-24T20:11:44.596Z,21.05
2022-11-24T20:14:46.118Z,23.92
2022-11-24T20:17:47.642Z,21.98
2022-11-24T20:20:49.172Z,27.52
2022-11-24T20:23:56.721Z,22.50
2022-11-24T20:27:00.068Z,23.55
2022-11-24T20:30:01.821Z,27.55
2022-11-24T20:33:03.699Z,26.50
2022-11-24T20:36:10.956Z,22.73
2022-11-24T20:39:18.619Z,15.43
2022-11-24T20:42:22.627Z,22.17
2022-11-24T20:45:24.212Z,18.85
2022-11-24T20:48:25.747Z,25.13
2022-11-24T20:51:33.386Z,19.88
2022-11-24T20:54:35.251Z,17.85
2022-11-24T20:57:36.855Z,17.10
2022-11-24T21:00:38.441Z,22.13
2022-11-24T21:03:43.287Z,22.42
2022-11-24T21:06:52.959Z,17.45
2022-11-24T21:09:54.479Z,21.13
2022-11-24T21:12:56.040Z,15.57
2022-11-24T21:15:57.713Z,17.08
2022-11-24T21:19:02.107Z,14.70
2022-11-24T21:22:03.654Z,18.35
2022-11-24T21:25:05.462Z,17.48
2022-11-24T21:28:08.055Z,21.63
2022-11-24T21:31:11.988Z,15.43
2022-11-24T21:34:15.808Z,18.00
2022-11-24T21:37:18.187Z,18.40
2022-11-24T21:40:19.719Z,19.98
2022-11-24T21:43:21.252Z,14.95
2022-11-24T21:46:23.786Z,21.25
2022-11-24T21:49:25.500Z,17.63
2022-11-24T21:52:26.996Z,21.05
2022-11-24T21:55:28.522Z,17.75
2022-11-24T21:58:30.093Z,20.17
2022-11-24T22:01:31.707Z,25.83
2022-11-24T22:04:33.620Z,18.08
2022-11-24T22:07:35.387Z,18.58
2022-11-24T22:10:37.057Z,18.73
2022-11-24T22:13:38.994Z,23.00
2022-11-24T22:16:40.728Z,19.67
2022-11-24T22:19:42.317Z,22.48
2022-11-24T22:22:48.177Z,19.25
2022-11-24T22:25:49.742Z,19.92
2022-11-24T22:28:52.060Z,18.65
2022-11-24T22:31:53.652Z,25.23
2022-11-24T22:34:55.183Z,24.02
2022-11-24T22:37:56.741Z,17.42
2022-11-24T22:41:08.620Z,20.45
2022-11-24T22:44:10.175Z,20.60
2022-11-24T22:47:11.698Z,16.50
2022-11-24T22:50:13.868Z,23.25
2022-11-24T22:53:15.399Z,21.30
2022-11-24T22:56:17.621Z,22.52
2022-11-24T22:59:19.163Z,20.65
2022-11-24T23:02:20.792Z,25.85
2022-11-24T23:05:22.316Z,18.33
2022-11-24T23:08:23.863Z,22.05
2022-11-24T23:11:37.206Z,15.90
2022-11-24T23:14:39.450Z,21.90
2022-11-24T23:17:41.163Z,13.88
2022-11-24T23:20:42.662Z,18.70
2022-11-24T23:23:44.794Z,18.25
2022-11-24T23:26:46.326Z,16.92
2022-11-24T23:29:47.854Z,19.92
2022-11-24T23:32:49.367Z,20.88
2022-11-24T23:35:50.857Z,17.08
2022-11-24T23:38:52.723Z,20.77
2022-11-24T23:41:54.232Z,18.83
2022-11-24T23:44:55.760Z,17.70
2022-11-24T23:47:57.280Z,21.58
2022-11-24T23:51:11.231Z,20.35
2022-11-24T23:54:12.832Z,21.55
2022-11-24T23:57:14.326Z,15.55
